createdAt,value
2023-02-28T00:04:13.244Z,10.93
2023-02-28T00:08:30.459Z,11.30
2023-02-28T00:12:52.299Z,10.60
2023-02-28T00:17:09.388Z,10.65
2023-02-28T00:21:26.453Z,10.85
2023-02-28T00:25:43.538Z,10.50
2023-02-28T00:30:00.605Z,11.73
2023-02-28T00:34:17.687Z,11.07
2023-02-28T00:38:34.842Z,11.65
2023-02-28T00:42:51.968Z,11.87
2023-02-28T00:47:09.098Z,11.70
2023-02-28T00:51:26.327Z,11.63
2023-02-28T00:55:43.596Z,11.27
2023-02-28T01:00:00.740Z,11.37
2023-02-28T01:04:18.219Z,11.43
2023-02-28T01:08:35.309Z,11.55
2023-02-28T01:12:52.523Z,10.90
2023-02-28T01:17:09.836Z,11.90
2023-02-28T01:21:27.385Z,11.00
2023-02-28T01:25:44.799Z,11.18
2023-02-28T01:30:02.241Z,12.27
2023-02-28T01:34:20.397Z,12.33
2023-02-28T01:38:37.569Z,12.98
2023-02-28T01:42:54.780Z,14.47
2023-02-28T01:47:11.945Z,15.37
2023-02-28T01:51:46.635Z,15.50
2023-02-28T01:56:07.954Z,20.38
2023-02-28T02:00:27.781Z,17.15
2023-02-28T02:04:55.591Z,19.42
2023-02-28T02:09:13.433Z,18.35
2023-02-28T02:13:45.380Z,20.02
2023-02-28T02:18:12.264Z,20.17
2023-02-28T02:22:56.490Z,15.38
2023-02-28T02:27:41.050Z,15.50
2023-02-28T02:32:10.398Z,13.68
2023-02-28T02:36:35.052Z,10.63
2023-02-28T02:41:15.482Z,12.88
2023-02-28T02:45:39.031Z,11.35
2023-02-28T02:49:59.333Z,10.80
2023-02-28T02:54:24.533Z,11.13
2023-02-28T02:58:43.973Z,10.70
2023-02-28T03:03:02.636Z,10.65
2023-02-28T03:07:20.129Z,10.63
2023-02-28T03:11:38.911Z,10.25
2023-02-28T03:16:23.835Z,11.00
2023-02-28T03:21:11.847Z,9.98
2023-02-28T03:25:52.893Z,10.65
2023-02-28T03:30:28.352Z,10.23
2023-02-28T03:35:06.900Z,10.18
2023-02-28T03:39:50.255Z,10.55
2023-02-28T03:44:16.983Z,10.35
2023-02-28T03:48:47.884Z,9.73
2023-02-28T03:53:25.939Z,9.65
2023-02-28T03:58:02.857Z,9.93
2023-02-28T04:02:19.919Z,9.88
2023-02-28T04:06:37.589Z,9.90
2023-02-28T04:11:01.913Z,10.15
2023-02-28T04:15:23.641Z,9.27
2023-02-28T04:19:40.722Z,11.18
2023-02-28T04:24:01.624Z,10.67
2023-02-28T04:28:18.730Z,9.57
2023-02-28T04:32:35.912Z,10.10
2023-02-28T04:37:10.375Z,11.03
2023-02-28T04:41:32.253Z,11.32
2023-02-28T04:45:49.720Z,10.82
2023-02-28T04:50:07.275Z,10.83
2023-02-28T04:54:24.326Z,10.82
2023-02-28T04:58:41.767Z,11.13
2023-02-28T05:02:58.884Z,11.82
2023-02-28T05:07:15.953Z,12.60
2023-02-28T05:11:38.145Z,12.70
2023-02-28T05:15:55.663Z,13.68
2023-02-28T05:20:15.602Z,14.43
2023-02-28T05:24:33.582Z,15.55
2023-02-28T05:28:50.668Z,14.95
2023-02-28T05:33:07.729Z,15.38
2023-02-28T05:37:24.794Z,15.32
2023-02-28T05:41:43.114Z,17.13
2023-02-28T05:46:00.283Z,16.90
2023-02-28T05:50:17.414Z,18.23
2023-02-28T05:54:34.837Z,17.48
2023-02-28T05:58:51.906Z,17.48
2023-02-28T06:03:09.007Z,18.60
2023-02-28T06:07:26.108Z,17.90
2023-02-28T06:11:43.477Z,18.77
2023-02-28T06:16:03.766Z,19.17
2023-02-28T06:20:20.847Z,19.52
2023-02-28T06:24:38.001Z,18.85
2023-02-28T06:28:56.002Z,20.60
2023-02-28T06:37:31.835Z,18.13
2023-02-28T06:41:55.300Z,18.92
2023-02-28T06:46:15.113Z,19.30
2023-02-28T06:50:33.736Z,18.23
2023-02-28T06:55:00.979Z,18.15
2023-02-28T06:59:18.256Z,17.42
2023-02-28T07:03:36.802Z,18.07
2023-02-28T07:07:53.873Z,18.40
2023-02-28T07:12:11.014Z,15.77
2023-02-28T07:16:28.385Z,15.50
2023-02-28T07:20:45.543Z,16.30
2023-02-28T07:25:02.691Z,15.27
2023-02-28T07:29:19.808Z,16.23
2023-02-28T07:33:36.971Z,15.73
2023-02-28T07:37:54.079Z,15.65
2023-02-28T07:42:12.866Z,15.25
2023-02-28T07:46:38.581Z,15.10
2023-02-28T07:50:57.509Z,15.00
2023-02-28T07:55:14.990Z,15.10
2023-02-28T07:59:32.465Z,14.95
2023-02-28T08:03:49.611Z,14.60
2023-02-28T08:08:07.635Z,14.57
2023-02-28T08:12:24.918Z,14.60
2023-02-28T08:16:43.782Z,13.40
2023-02-28T08:21:06.055Z,13.50
2023-02-28T08:25:23.181Z,12.80
2023-02-28T08:29:40.493Z,13.10
2023-02-28T08:33:59.781Z,13.17
2023-02-28T08:38:16.866Z,11.13
2023-02-28T08:42:34.104Z,10.27
2023-02-28T08:46:51.185Z,10.13
2023-02-28T08:51:11.148Z,9.68
2023-02-28T08:55:28.221Z,9.73
2023-02-28T08:59:45.354Z,10.32
2023-02-28T09:04:03.368Z,9.55
2023-02-28T09:08:20.525Z,9.10
2023-02-28T09:12:37.671Z,8.77
2023-02-28T09:16:54.874Z,9.00
2023-02-28T09:21:16.308Z,8.20
2023-02-28T09:25:33.540Z,8.60
2023-02-28T09:29:50.670Z,9.18
2023-02-28T09:34:07.979Z,8.65
2023-02-28T09:38:25.097Z,12.38
2023-02-28T09:42:42.292Z,9.70
2023-02-28T09:47:06.083Z,8.43
2023-02-28T09:51:47.123Z,11.60
2023-02-28T09:56:11.217Z,8.65
2023-02-28T10:00:41.233Z,8.68
2023-02-28T10:05:04.990Z,8.38
2023-02-28T10:09:33.160Z,7.35
2023-02-28T10:14:06.752Z,7.50
2023-02-28T10:18:31.746Z,7.55
2023-02-28T10:22:57.583Z,7.32
2023-02-28T10:27:20.303Z,7.35
2023-02-28T10:31:37.532Z,7.70
2023-02-28T10:35:54.971Z,8.07
2023-02-28T10:40:29.426Z,8.43
2023-02-28T10:44:46.586Z,7.85
2023-02-28T10:49:06.664Z,7.82
2023-02-28T10:53:26.756Z,8.23
2023-02-28T10:57:43.826Z,7.90
2023-02-28T11:02:01.055Z,8.07
2023-02-28T11:06:21.995Z,7.30
2023-02-28T11:10:39.715Z,7.50
2023-02-28T11:15:05.321Z,8.23
2023-02-28T11:19:29.446Z,8.10
2023-02-28T11:23:46.992Z,9.02
2023-02-28T11:28:25.334Z,8.40
2023-02-28T11:32:50.285Z,9.00
2023-02-28T11:37:21.436Z,11.13
2023-02-28T11:42:04.514Z,9.00
2023-02-28T11:46:36.870Z,8.40
2023-02-28T11:50:53.959Z,8.70
2023-02-28T11:55:35.547Z,9.57
2023-02-28T12:00:02.102Z,8.85
2023-02-28T12:04:57.775Z,9.50
2023-02-28T12:09:36.926Z,8.57
2023-02-28T12:14:15.792Z,8.82
2023-02-28T12:18:44.605Z,9.13
2023-02-28T12:23:26.387Z,9.88
2023-02-28T12:27:46.997Z,9.48
2023-02-28T12:32:33.336Z,9.43
2023-02-28T12:36:52.829Z,9.23
2023-02-28T12:41:29.289Z,9.70
2023-02-28T12:45:52.220Z,9.95
2023-02-28T12:50:12.510Z,9.88
2023-02-28T12:54:32.471Z,10.40
2023-02-28T12:58:55.318Z,9.95
2023-02-28T13:03:31.732Z,10.05
2023-02-28T13:08:08.440Z,9.65
2023-02-28T13:12:27.687Z,9.82
2023-02-28T13:17:04.818Z,10.80
2023-02-28T13:21:30.834Z,10.00
2023-02-28T13:25:52.190Z,10.32
2023-02-28T13:30:47.227Z,10.15
2023-02-28T13:35:05.311Z,10.57
2023-02-28T13:39:37.751Z,10.40
2023-02-28T13:44:09.700Z,9.98
2023-02-28T13:48:30.316Z,9.45
2023-02-28T13:53:13.852Z,10.13
2023-02-28T13:58:01.260Z,10.50
2023-02-28T14:02:50.633Z,10.32
2023-02-28T14:07:09.074Z,11.40
2023-02-28T14:11:29.857Z,10.57
2023-02-28T14:15:50.520Z,10.80
2023-02-28T14:20:16.961Z,11.70
2023-02-28T14:24:52.718Z,12.30
2023-02-28T14:29:41.633Z,13.00
2023-02-28T14:34:23.536Z,11.67
2023-02-28T14:38:54.038Z,12.65
2023-02-28T14:43:23.911Z,11.80
2023-02-28T14:47:43.754Z,12.48
2023-02-28T14:52:18.500Z,12.57
2023-02-28T14:56:39.316Z,14.75
2023-02-28T15:00:59.897Z,14.00
2023-02-28T15:05:17.606Z,14.70
2023-02-28T15:09:34.754Z,14.23
2023-02-28T15:13:57.311Z,15.68
2023-02-28T15:18:23.144Z,15.70
2023-02-28T15:22:40.683Z,12.95
2023-02-28T15:27:00.197Z,13.93
2023-02-28T15:31:46.975Z,13.75
2023-02-28T15:36:16.356Z,13.75
2023-02-28T15:40:38.194Z,13.40
2023-02-28T15:44:55.350Z,14.05
2023-02-28T15:49:21.461Z,14.15
2023-02-28T15:53:46.145Z,14.88
2023-02-28T15:58:03.710Z,14.68
2023-02-28T16:02:23.621Z,13.90
2023-02-28T16:06:58.780Z,15.13
2023-02-28T16:11:16.084Z,15.25
2023-02-28T16:15:42.512Z,15.77
2023-02-28T16:20:00.940Z,14.48
2023-02-28T16:24:18.001Z,15.63
2023-02-28T16:28:37.536Z,13.57
2023-02-28T16:32:56.636Z,14.38
2023-02-28T16:37:18.720Z,15.35
2023-02-28T16:41:35.930Z,15.90
2023-02-28T16:46:01.380Z,16.10
2023-02-28T16:50:27.674Z,15.32
2023-02-28T16:54:44.758Z,16.00
2023-02-28T16:59:03.166Z,16.20
2023-02-28T17:03:32.634Z,17.75
2023-02-28T17:07:50.883Z,17.92
2023-02-28T17:12:09.056Z,20.40
2023-02-28T17:20:46.781Z,18.55
2023-02-28T17:25:04.364Z,19.00
2023-02-28T17:29:22.405Z,19.17
2023-02-28T17:33:39.563Z,17.70
2023-02-28T17:37:56.740Z,19.88
2023-02-28T17:42:13.811Z,20.48
2023-02-28T17:46:31.648Z,21.02
2023-02-28T17:50:49.072Z,19.65
2023-02-28T17:55:06.603Z,19.70
2023-02-28T17:59:23.707Z,23.13
2023-02-28T18:03:41.088Z,21.50
2023-02-28T18:07:58.344Z,22.87
2023-02-28T18:12:15.464Z,21.17
2023-02-28T18:16:33.022Z,20.70
2023-02-28T18:20:50.827Z,23.33
2023-02-28T18:25:14.472Z,22.73
2023-02-28T18:29:32.582Z,22.23
2023-02-28T18:38:22.447Z,20.52
2023-02-28T18:42:39.640Z,23.52
2023-02-28T18:46:56.936Z,21.30
2023-02-28T18:51:20.308Z,21.73
2023-02-28T18:55:37.658Z,22.27
2023-02-28T18:59:54.843Z,23.63
2023-02-28T19:04:13.673Z,26.50
2023-02-28T19:08:32.435Z,27.25
2023-02-28T19:12:51.687Z,25.67
2023-02-28T19:17:10.540Z,28.30
2023-02-28T19:21:31.483Z,29.15
2023-02-28T19:25:50.686Z,28.50
2023-02-28T19:30:10.490Z,27.52
2023-02-28T19:34:29.711Z,25.15
2023-02-28T19:38:48.991Z,25.33
2023-02-28T19:43:09.186Z,24.55
2023-02-28T19:47:27.328Z,23.75
2023-02-28T19:56:04.092Z,24.15
2023-02-28T20:00:21.713Z,24.42
2023-02-28T20:04:39.040Z,24.95
2023-02-28T20:08:56.401Z,25.07
2023-02-28T20:13:16.673Z,24.87
2023-02-28T20:17:34.054Z,23.83
2023-02-28T20:21:51.349Z,25.48
2023-02-28T20:26:09.850Z,24.23
2023-02-28T20:30:27.216Z,25.65
2023-02-28T20:34:44.806Z,25.02
2023-02-28T20:39:02.094Z,26.13
2023-02-28T20:43:19.252Z,25.17
2023-02-28T20:47:36.418Z,45.47
2023-02-28T20:51:53.505Z,32.57
2023-02-28T20:56:16.344Z,30.57
2023-02-28T21:00:33.401Z,27.70
2023-02-28T21:04:50.471Z,29.93
2023-02-28T21:09:08.911Z,29.63
2023-02-28T21:13:26.747Z,28.55
2023-02-28T21:17:43.872Z,28.65
2023-02-28T21:22:01.019Z,28.13
2023-02-28T21:26:23.850Z,27.60
2023-02-28T21:30:41.008Z,28.27
2023-02-28T21:34:58.165Z,29.07
2023-02-28T21:39:19.069Z,28.33
2023-02-28T21:43:36.976Z,27.15
2023-02-28T21:52:10.988Z,24.77
2023-02-28T21:56:31.448Z,26.73
2023-02-28T22:00:49.084Z,27.27
2023-02-28T22:05:06.377Z,25.85
2023-02-28T22:09:23.598Z,26.95
2023-02-28T22:13:41.402Z,28.43
2023-02-28T22:17:58.890Z,28.23
2023-02-28T22:22:15.976Z,25.70
2023-02-28T22:26:33.363Z,27.03
2023-02-28T22:30:51.001Z,28.67
2023-02-28T22:35:08.553Z,27.45
2023-02-28T22:39:25.620Z,26.67
2023-02-28T22:43:43.987Z,25.73
2023-02-28T22:48:01.708Z,26.60
2023-02-28T22:52:18.833Z,26.35
2023-02-28T22:56:36.162Z,26.73
2023-02-28T23:00:54.841Z,26.48
2023-02-28T23:05:13.230Z,25.45
2023-02-28T23:09:30.361Z,27.10
2023-02-28T23:13:58.353Z,25.87
2023-02-28T23:18:15.686Z,26.98
2023-02-28T23:22:32.807Z,26.13
2023-02-28T23:26:53.728Z,27.33
2023-02-28T23:31:10.835Z,25.80
2023-02-28T23:35:28.141Z,25.07
2023-02-28T23:39:45.231Z,26.38
2023-02-28T23:44:02.314Z,26.43
2023-02-28T23:48:19.534Z,26.40
2023-02-28T23:52:36.678Z,26.25
2023-02-28T23:56:54.105Z,25.80
